Time;durP1;ratioP1;P1;durP2;ratioP2;P2;SDS_P1;SDS_P2;PMS_P1;PMS_P2;Temp;Humidity;BMP_temperature;BMP_pressure;BME280_temperature;BME280_humidity;BME280_pressure;Samples;Min_cycle;Max_cycle;Signal;HPM_P1;HPM_P2
2023/09/08 00:00:09;;;;;;;12.43;6.57;;;;;;;;;;6187056;23;20023;-41
2023/09/08 00:02:36;;;;;;;13.88;7.00;;;;;;;;;;6183298;23;20033;-41
2023/09/08 00:05:05;;;;;;;11.57;6.35;;;;;;;;;;6181213;23;20020;-43
2023/09/08 00:07:32;;;;;;;8.93;6.32;;;;;;;;;;6187383;23;20017;-43
2023/09/08 00:10:00;;;;;;;9.80;6.63;;;;;;;;;;6182131;23;20456;-43
2023/09/08 00:12:28;;;;;;;11.73;7.15;;;;;;;;;;6189649;23;20095;-43
2023/09/08 00:14:57;;;;;;;9.82;6.47;;;;;;;;;;6177647;23;20038;-41
2023/09/08 00:17:25;;;;;;;11.23;7.22;;;;;;;;;;6188151;23;20016;-42
2023/09/08 00:19:53;;;;;;;10.10;7.15;;;;;;;;;;6181206;23;20016;-42
2023/09/08 00:22:21;;;;;;;11.77;6.40;;;;;;;;;;6192798;23;20024;-43
2023/09/08 00:24:49;;;;;;;11.23;6.68;;;;;;;;;;6179409;23;20062;-43
2023/09/08 00:27:17;;;;;;;9.73;6.22;;;;;;;;;;6194217;23;20021;-41
2023/09/08 00:29:45;;;;;;;10.65;6.47;;;;;;;;;;6184670;23;20032;-41
2023/09/08 00:32:18;;;;;;;11.05;6.50;;;;;;;;;;6188250;23;20020;-41
2023/09/08 00:34:46;;;;;;;10.73;6.13;;;;;;;;;;6194824;23;20013;-41
2023/09/08 00:37:13;;;;;;;13.30;6.95;;;;;;;;;;6182891;23;20444;-41
2023/09/08 00:39:41;;;;;;;9.45;6.38;;;;;;;;;;6190469;23;20047;-42
2023/09/08 00:42:13;;;;;;;11.40;7.20;;;;;;;;;;6187365;23;20017;-41
2023/09/08 00:44:41;;;;;;;12.45;6.95;;;;;;;;;;6175680;23;20047;-43
2023/09/08 00:47:08;;;;;;;11.00;6.93;;;;;;;;;;6185775;23;20024;-41
2023/09/08 00:49:38;;;;;;;11.05;7.05;;;;;;;;;;6181345;23;20198;-41
2023/09/08 00:52:06;;;;;;;10.95;6.80;;;;;;;;;;6187850;23;20020;-41
2023/09/08 00:54:34;;;;;;;11.70;6.47;;;;;;;;;;6179326;23;20433;-41
2023/09/08 00:57:03;;;;;;;13.75;7.45;;;;;;;;;;6190127;23;20071;-41
2023/09/08 00:59:32;;;;;;;11.77;6.37;;;;;;;;;;6166923;23;20487;-43
2023/09/08 01:01:59;;;;;;;11.85;6.65;;;;;;;;;;6186660;23;20606;-41
2023/09/08 01:04:27;;;;;;;10.98;6.82;;;;;;;;;;6175946;23;20079;-42
2023/09/08 01:06:57;;;;;;;10.73;7.05;;;;;;;;;;6186944;23;20024;-41
2023/09/08 01:09:25;;;;;;;12.82;6.82;;;;;;;;;;6177925;23;20016;-41
2023/09/08 01:11:55;;;;;;;11.80;6.50;;;;;;;;;;6185068;23;20440;-41
2023/09/08 01:14:23;;;;;;;14.00;7.50;;;;;;;;;;6177366;23;20017;-45
2023/09/08 01:16:53;;;;;;;12.40;7.65;;;;;;;;;;6187538;23;20480;-42
2023/09/08 01:19:21;;;;;;;12.82;7.30;;;;;;;;;;6163101;23;20593;-43
2023/09/08 01:22:06;;;;;;;11.38;6.70;;;;;;;;;;6168052;23;20036;-42
2023/09/08 01:24:43;;;;;;;14.07;7.47;;;;;;;;;;6185525;23;20017;-44
2023/09/08 01:27:14;;;;;;;11.45;7.10;;;;;;;;;;6185082;23;20013;-42
2023/09/08 01:29:42;;;;;;;11.52;6.43;;;;;;;;;;6187349;23;20017;-41
2023/09/08 01:32:10;;;;;;;11.32;6.82;;;;;;;;;;6178317;23;20017;-42
2023/09/08 01:34:40;;;;;;;12.20;7.53;;;;;;;;;;6178072;23;20027;-42
2023/09/08 01:37:09;;;;;;;10.13;7.27;;;;;;;;;;6181884;23;20313;-42
2023/09/08 01:39:37;;;;;;;11.73;7.03;;;;;;;;;;6183317;23;20364;-43
2023/09/08 01:42:05;;;;;;;9.40;6.63;;;;;;;;;;6175822;23;20012;-45
2023/09/08 01:44:34;;;;;;;9.98;7.13;;;;;;;;;;6182563;23;20031;-42
2023/09/08 01:47:02;;;;;;;11.52;6.93;;;;;;;;;;6183300;23;20715;-43
2023/09/08 01:49:30;;;;;;;11.50;6.67;;;;;;;;;;6188996;23;20070;-43
2023/09/08 01:51:59;;;;;;;12.65;7.10;;;;;;;;;;6185745;23;20017;-42
2023/09/08 01:54:26;;;;;;;10.05;7.22;;;;;;;;;;6159625;23;20382;-43
2023/09/08 01:56:54;;;;;;;11.00;6.95;;;;;;;;;;6188276;23;20012;-42
2023/09/08 01:59:23;;;;;;;10.27;6.88;;;;;;;;;;6192034;23;20344;-42
2023/09/08 02:01:52;;;;;;;13.37;6.60;;;;;;;;;;6181144;23;20652;-42
2023/09/08 02:04:19;;;;;;;9.85;6.65;;;;;;;;;;6192484;23;20111;-41
2023/09/08 02:06:47;;;;;;;10.68;6.63;;;;;;;;;;6187585;23;20020;-41
2023/09/08 02:09:20;;;;;;;10.88;7.32;;;;;;;;;;6186983;23;20073;-42
2023/09/08 02:11:50;;;;;;;10.27;6.10;;;;;;;;;;6185043;23;20013;-42
2023/09/08 02:14:20;;;;;;;11.13;7.00;;;;;;;;;;6184835;23;20025;-42
2023/09/08 02:16:48;;;;;;;9.75;6.57;;;;;;;;;;6186383;23;20719;-42
2023/09/08 02:19:18;;;;;;;9.52;6.18;;;;;;;;;;6186975;23;20448;-42
2023/09/08 02:21:46;;;;;;;10.13;6.25;;;;;;;;;;6197297;23;20112;-41
2023/09/08 02:24:14;;;;;;;9.80;6.85;;;;;;;;;;6182133;23;20021;-44
2023/09/08 02:26:42;;;;;;;11.27;6.97;;;;;;;;;;6182633;23;20017;-41
2023/09/08 02:29:10;;;;;;;10.70;6.80;;;;;;;;;;6180222;23;20480;-43
2023/09/08 02:31:38;;;;;;;10.88;6.88;;;;;;;;;;6187382;23;20289;-41
2023/09/08 02:34:06;;;;;;;10.18;6.60;;;;;;;;;;6179544;23;20027;-44
2023/09/08 02:36:35;;;;;;;10.25;5.93;;;;;;;;;;6192105;23;20448;-42
2023/09/08 02:39:03;;;;;;;10.43;6.70;;;;;;;;;;6181567;23;20432;-42
2023/09/08 02:41:31;;;;;;;11.07;7.55;;;;;;;;;;6187612;23;20430;-42
2023/09/08 02:43:59;;;;;;;10.80;6.40;;;;;;;;;;6186386;23;20686;-41
2023/09/08 02:46:27;;;;;;;9.98;6.63;;;;;;;;;;6160742;23;20020;-44
2023/09/08 02:48:54;;;;;;;9.25;6.07;;;;;;;;;;6188331;23;20488;-43
2023/09/08 02:51:22;;;;;;;9.37;6.40;;;;;;;;;;6188509;23;20024;-41
2023/09/08 02:53:51;;;;;;;9.73;5.88;;;;;;;;;;6184700;23;20027;-44
2023/09/08 02:56:19;;;;;;;9.80;5.80;;;;;;;;;;6185550;23;20021;-41
2023/09/08 02:58:47;;;;;;;9.80;5.75;;;;;;;;;;6185697;23;20027;-42
2023/09/08 03:01:20;;;;;;;11.23;6.40;;;;;;;;;;6190414;23;20352;-43
2023/09/08 03:03:48;;;;;;;11.43;6.67;;;;;;;;;;6191036;23;20075;-43
2023/09/08 03:06:19;;;;;;;9.15;5.97;;;;;;;;;;6184656;23;20023;-41
2023/09/08 03:08:49;;;;;;;9.63;6.55;;;;;;;;;;6192461;23;20020;-41
2023/09/08 03:11:20;;;;;;;9.57;5.68;;;;;;;;;;6196164;23;20147;-42
2023/09/08 03:13:47;;;;;;;12.02;6.18;;;;;;;;;;6182391;23;20075;-44
2023/09/08 03:16:15;;;;;;;8.97;5.77;;;;;;;;;;6196461;23;20089;-41
2023/09/08 03:18:43;;;;;;;10.00;6.63;;;;;;;;;;6183003;23;20092;-42
2023/09/08 03:21:10;;;;;;;10.98;6.25;;;;;;;;;;6195260;23;20043;-44
2023/09/08 03:23:38;;;;;;;9.52;6.22;;;;;;;;;;6184886;23;20562;-41
2023/09/08 03:26:07;;;;;;;10.38;6.20;;;;;;;;;;6181286;23;20009;-43
2023/09/08 03:28:37;;;;;;;10.13;6.10;;;;;;;;;;6191442;23;20092;-42
2023/09/08 03:31:04;;;;;;;10.32;5.30;;;;;;;;;;6186726;23;20016;-42
2023/09/08 03:33:42;;;;;;;10.82;5.70;;;;;;;;;;6188909;23;20059;-41
2023/09/08 03:36:10;;;;;;;10.77;6.20;;;;;;;;;;6185233;23;20016;-44
2023/09/08 03:38:39;;;;;;;12.13;6.68;;;;;;;;;;6193690;23;20016;-41
2023/09/08 03:41:07;;;;;;;12.63;6.63;;;;;;;;;;6182866;23;20468;-42
2023/09/08 03:43:36;;;;;;;11.02;6.40;;;;;;;;;;6193951;23;20075;-42
2023/09/08 03:46:04;;;;;;;12.35;6.43;;;;;;;;;;6178149;23;20452;-45
2023/09/08 03:48:58;;;;;;;10.05;6.38;;;;;;;;;;6190635;23;20031;-42
2023/09/08 03:51:26;;;;;;;9.07;5.90;;;;;;;;;;6196763;23;20540;-41
2023/09/08 03:53:54;;;;;;;12.27;6.57;;;;;;;;;;6177345;23;20013;-42
2023/09/08 03:56:22;;;;;;;11.27;6.95;;;;;;;;;;6190082;23;20012;-41
2023/09/08 03:58:51;;;;;;;11.25;6.60;;;;;;;;;;6182797;23;20075;-42
2023/09/08 04:01:19;;;;;;;10.38;5.80;;;;;;;;;;6191099;23;20592;-42
2023/09/08 04:03:47;;;;;;;11.98;6.18;;;;;;;;;;6180471;23;20550;-42
2023/09/08 04:06:15;;;;;;;10.17;5.97;;;;;;;;;;6188215;23;20535;-41
2023/09/08 04:08:43;;;;;;;11.68;5.80;;;;;;;;;;6189431;23;20023;-42
2023/09/08 04:11:10;;;;;;;10.43;6.15;;;;;;;;;;6187715;23;20047;-42
2023/09/08 04:13:39;;;;;;;9.45;5.95;;;;;;;;;;6188311;23;20045;-41
2023/09/08 04:16:09;;;;;;;9.57;6.32;;;;;;;;;;6189157;23;20017;-43
2023/09/08 04:18:37;;;;;;;9.97;6.73;;;;;;;;;;6181202;23;20020;-43
2023/09/08 04:21:07;;;;;;;10.27;6.45;;;;;;;;;;6196060;23;20020;-41
2023/09/08 04:23:34;;;;;;;9.52;6.00;;;;;;;;;;6176477;23;20096;-44
2023/09/08 04:26:03;;;;;;;10.15;5.80;;;;;;;;;;6189924;23;20026;-42
2023/09/08 04:28:31;;;;;;;11.18;6.28;;;;;;;;;;6184685;23;20043;-42
2023/09/08 04:30:59;;;;;;;11.30;6.33;;;;;;;;;;6189492;23;20356;-42
2023/09/08 04:33:29;;;;;;;9.68;6.25;;;;;;;;;;6180713;23;20035;-41
2023/09/08 04:36:01;;;;;;;12.35;7.07;;;;;;;;;;6193554;23;20681;-42
2023/09/08 04:38:29;;;;;;;12.77;7.35;;;;;;;;;;6196220;23;20024;-42
2023/09/08 04:40:57;;;;;;;9.05;6.25;;;;;;;;;;6182275;23;20366;-43
2023/09/08 04:43:24;;;;;;;9.43;6.37;;;;;;;;;;6193605;23;20091;-42
2023/09/08 04:45:52;;;;;;;11.88;7.03;;;;;;;;;;6183559;23;20083;-42
2023/09/08 04:48:20;;;;;;;10.70;6.47;;;;;;;;;;6193974;23;20039;-43
2023/09/08 04:50:51;;;;;;;9.73;6.22;;;;;;;;;;6175992;23;20368;-42
2023/09/08 04:53:18;;;;;;;11.30;6.90;;;;;;;;;;6182607;23;20021;-43
2023/09/08 04:55:46;;;;;;;11.90;6.97;;;;;;;;;;6186367;23;20027;-43
2023/09/08 04:58:16;;;;;;;10.52;6.20;;;;;;;;;;6188857;23;20628;-41
2023/09/08 05:00:44;;;;;;;9.82;6.22;;;;;;;;;;6182783;23;20020;-42
2023/09/08 05:03:12;;;;;;;10.52;6.55;;;;;;;;;;6181675;23;20051;-44
2023/09/08 05:05:41;;;;;;;10.77;6.60;;;;;;;;;;6184393;23;20092;-41
2023/09/08 05:08:12;;;;;;;9.63;6.60;;;;;;;;;;6180597;23;20021;-42
2023/09/08 05:10:40;;;;;;;11.13;6.85;;;;;;;;;;6190310;23;20047;-44
2023/09/08 05:13:08;;;;;;;11.52;6.82;;;;;;;;;;6179829;23;20024;-42
2023/09/08 05:15:59;;;;;;;9.50;6.47;;;;;;;;;;6188442;23;20352;-41
2023/09/08 05:18:27;;;;;;;10.88;6.72;;;;;;;;;;6185875;23;20024;-41
2023/09/08 05:20:55;;;;;;;13.23;6.57;;;;;;;;;;6181451;23;20344;-42
2023/09/08 05:23:24;;;;;;;12.07;6.45;;;;;;;;;;6183344;23;20021;-42
2023/09/08 05:25:52;;;;;;;15.63;6.75;;;;;;;;;;6187021;23;20401;-42
2023/09/08 05:28:20;;;;;;;9.88;6.22;;;;;;;;;;6182845;23;20017;-42
2023/09/08 05:30:47;;;;;;;9.75;6.25;;;;;;;;;;6184908;23;20092;-43
2023/09/08 05:33:15;;;;;;;11.40;7.07;;;;;;;;;;6179134;23;20096;-41
2023/09/08 05:35:43;;;;;;;12.25;7.10;;;;;;;;;;6183397;23;20013;-42
2023/09/08 05:38:11;;;;;;;11.90;6.32;;;;;;;;;;6175992;23;20044;-42
2023/09/08 05:40:40;;;;;;;9.93;6.00;;;;;;;;;;6186301;23;20016;-42
2023/09/08 05:43:08;;;;;;;12.77;6.88;;;;;;;;;;6183817;23;20027;-41
2023/09/08 05:45:36;;;;;;;10.97;6.10;;;;;;;;;;6189509;23;20020;-42
2023/09/08 05:48:05;;;;;;;11.18;6.45;;;;;;;;;;6187191;23;20027;-44
2023/09/08 05:50:32;;;;;;;13.38;6.70;;;;;;;;;;6180491;23;20103;-41
2023/09/08 05:53:01;;;;;;;10.75;6.95;;;;;;;;;;6182013;23;20020;-41
2023/09/08 05:55:28;;;;;;;11.32;6.90;;;;;;;;;;6186092;23;20020;-43
2023/09/08 05:57:57;;;;;;;13.27;7.83;;;;;;;;;;6183887;23;20027;-41
2023/09/08 06:00:25;;;;;;;12.07;7.10;;;;;;;;;;6178536;23;20024;-43
2023/09/08 06:03:14;;;;;;;12.77;6.47;;;;;;;;;;6186056;23;20020;-41
2023/09/08 06:05:44;;;;;;;12.73;6.78;;;;;;;;;;6181792;23;20349;-42
2023/09/08 06:08:14;;;;;;;13.20;6.63;;;;;;;;;;6187556;23;20471;-42
2023/09/08 06:10:41;;;;;;;12.50;7.33;;;;;;;;;;6181805;23;20082;-43
2023/09/08 06:13:10;;;;;;;13.60;8.20;;;;;;;;;;6188040;23;20023;-41
2023/09/08 06:15:38;;;;;;;12.48;7.88;;;;;;;;;;6178233;23;20016;-42
2023/09/08 06:18:07;;;;;;;15.27;8.85;;;;;;;;;;6186314;23;20012;-41
2023/09/08 06:20:36;;;;;;;14.38;8.30;;;;;;;;;;6183647;23;20024;-41
2023/09/08 06:23:04;;;;;;;14.63;8.13;;;;;;;;;;6183409;23;20528;-41
2023/09/08 06:25:32;;;;;;;13.30;8.25;;;;;;;;;;6184389;23;20027;-41
2023/09/08 06:28:00;;;;;;;13.02;7.78;;;;;;;;;;6165490;23;20017;-43
2023/09/08 06:30:30;;;;;;;13.15;7.35;;;;;;;;;;6187478;23;20016;-41
2023/09/08 06:32:58;;;;;;;13.88;8.15;;;;;;;;;;6178911;23;20569;-41
2023/09/08 06:35:26;;;;;;;12.47;7.67;;;;;;;;;;6182070;23;20013;-42
2023/09/08 06:37:54;;;;;;;14.75;7.95;;;;;;;;;;6186981;23;20101;-41
2023/09/08 06:40:22;;;;;;;12.43;6.85;;;;;;;;;;6176962;23;20384;-41
2023/09/08 06:42:49;;;;;;;13.30;7.90;;;;;;;;;;6188422;23;20024;-41
2023/09/08 06:45:17;;;;;;;14.27;7.38;;;;;;;;;;6183465;23;20020;-41
2023/09/08 06:47:48;;;;;;;12.50;8.03;;;;;;;;;;6170152;23;20828;-41
2023/09/08 06:50:17;;;;;;;11.50;7.18;;;;;;;;;;6183531;23;20023;-41
2023/09/08 06:52:45;;;;;;;14.43;7.32;;;;;;;;;;6181899;23;20034;-42
2023/09/08 06:55:16;;;;;;;11.45;7.43;;;;;;;;;;6187904;23;20016;-41
2023/09/08 06:57:44;;;;;;;11.20;7.32;;;;;;;;;;6187199;23;20029;-46
2023/09/08 07:00:17;;;;;;;11.50;7.43;;;;;;;;;;6183788;23;20383;-41
2023/09/08 07:02:45;;;;;;;13.80;8.13;;;;;;;;;;6185486;23;20020;-43
2023/09/08 07:05:14;;;;;;;12.65;6.88;;;;;;;;;;6177908;23;20016;-41
2023/09/08 07:07:42;;;;;;;11.00;5.47;;;;;;;;;;6186172;23;20407;-41
2023/09/08 07:10:11;;;;;;;10.23;5.65;;;;;;;;;;6181020;23;20021;-41
2023/09/08 07:12:39;;;;;;;9.70;5.87;;;;;;;;;;6185433;23;20020;-42
2023/09/08 07:15:08;;;;;;;9.32;5.68;;;;;;;;;;6184059;23;20012;-42
2023/09/08 07:17:36;;;;;;;9.07;5.05;;;;;;;;;;6176921;23;20462;-41
2023/09/08 07:20:03;;;;;;;9.75;5.20;;;;;;;;;;6180281;23;20099;-42
2023/09/08 07:22:33;;;;;;;10.95;4.32;;;;;;;;;;6183152;23;20021;-42
2023/09/08 07:25:00;;;;;;;8.30;4.60;;;;;;;;;;6165119;23;20026;-41
2023/09/08 07:27:28;;;;;;;11.02;5.43;;;;;;;;;;6171710;23;20095;-42
2023/09/08 07:29:56;;;;;;;8.38;4.45;;;;;;;;;;6179679;23;20420;-41
2023/09/08 07:32:24;;;;;;;9.10;4.68;;;;;;;;;;6191568;23;20072;-42
2023/09/08 07:34:54;;;;;;;11.82;5.03;;;;;;;;;;6174148;23;20083;-41
2023/09/08 07:37:23;;;;;;;10.20;4.93;;;;;;;;;;6186508;23;20023;-41
2023/09/08 07:39:52;;;;;;;9.85;5.18;;;;;;;;;;6186170;23;20012;-42
2023/09/08 07:42:20;;;;;;;9.88;5.75;;;;;;;;;;6181422;23;20067;-42
2023/09/08 07:44:48;;;;;;;8.18;4.30;;;;;;;;;;6169128;23;20431;-41
2023/09/08 07:47:16;;;;;;;9.05;4.80;;;;;;;;;;6185020;23;20021;-43
2023/09/08 07:49:46;;;;;;;10.03;4.90;;;;;;;;;;6138451;23;20904;-43
2023/09/08 07:52:14;;;;;;;10.35;4.95;;;;;;;;;;6192162;23;20024;-41
2023/09/08 07:54:42;;;;;;;10.70;5.50;;;;;;;;;;6169047;23;20091;-44
2023/09/08 07:57:11;;;;;;;9.38;5.00;;;;;;;;;;6176253;23;20020;-44
2023/09/08 07:59:39;;;;;;;11.45;4.45;;;;;;;;;;6179115;23;20016;-44
2023/09/08 08:02:08;;;;;;;11.07;4.70;;;;;;;;;;6174618;23;20067;-42
2023/09/08 08:04:38;;;;;;;9.13;4.85;;;;;;;;;;6179531;23;20024;-44
2023/09/08 08:07:06;;;;;;;8.00;4.88;;;;;;;;;;6186945;23;20423;-42
2023/09/08 08:09:34;;;;;;;10.32;4.90;;;;;;;;;;6170542;23;20016;-42
2023/09/08 08:12:02;;;;;;;10.00;4.93;;;;;;;;;;6182843;23;20043;-42
2023/09/08 08:14:31;;;;;;;8.90;4.93;;;;;;;;;;6151725;23;20296;-44
2023/09/08 08:16:59;;;;;;;10.52;5.45;;;;;;;;;;6153136;23;20024;-46
2023/09/08 08:19:29;;;;;;;8.95;5.60;;;;;;;;;;6168598;23;20017;-42
2023/09/08 08:21:57;;;;;;;8.43;5.10;;;;;;;;;;6167036;23;20017;-43
2023/09/08 08:24:26;;;;;;;13.25;5.60;;;;;;;;;;6172516;23;20538;-45
2023/09/08 08:26:53;;;;;;;11.20;5.73;;;;;;;;;;6167566;23;20809;-46
2023/09/08 08:29:21;;;;;;;10.45;4.78;;;;;;;;;;6169131;23;20021;-42
2023/09/08 08:31:50;;;;;;;10.10;5.07;;;;;;;;;;6160100;23;20028;-43
2023/09/08 08:34:18;;;;;;;10.77;5.57;;;;;;;;;;6169507;23;20024;-44
2023/09/08 08:36:49;;;;;;;11.88;6.00;;;;;;;;;;6162958;23;20017;-42
2023/09/08 08:39:17;;;;;;;10.80;6.43;;;;;;;;;;6167684;23;20447;-42
2023/09/08 08:41:44;;;;;;;11.57;6.00;;;;;;;;;;6144242;23;20016;-42
2023/09/08 08:44:12;;;;;;;13.98;5.13;;;;;;;;;;6164113;23;20523;-45
2023/09/08 08:46:41;;;;;;;13.32;5.70;;;;;;;;;;6175759;23;20020;-42
2023/09/08 08:49:24;;;;;;;12.38;5.90;;;;;;;;;;6162036;23;20021;-43
2023/09/08 08:51:52;;;;;;;15.83;5.50;;;;;;;;;;6167898;23;20624;-42
2023/09/08 08:54:20;;;;;;;11.95;5.57;;;;;;;;;;6172573;23;20820;-43
2023/09/08 08:56:49;;;;;;;10.82;5.03;;;;;;;;;;6168483;23;20020;-42
2023/09/08 08:59:17;;;;;;;13.65;5.15;;;;;;;;;;6165381;23;20052;-42
2023/09/08 09:01:46;;;;;;;13.82;4.65;;;;;;;;;;6163580;23;20367;-43
2023/09/08 09:04:14;;;;;;;12.30;5.40;;;;;;;;;;6166759;23;20119;-46
2023/09/08 09:06:44;;;;;;;8.60;4.43;;;;;;;;;;6148451;23;20021;-42
2023/09/08 09:09:13;;;;;;;10.27;4.75;;;;;;;;;;6171134;23;20016;-43
2023/09/08 09:11:41;;;;;;;8.52;4.60;;;;;;;;;;6159450;23;20047;-42
2023/09/08 09:14:13;;;;;;;10.23;4.70;;;;;;;;;;6165139;23;20095;-42
2023/09/08 09:16:41;;;;;;;7.53;4.23;;;;;;;;;;6112261;23;20019;-44
2023/09/08 09:19:09;;;;;;;11.32;4.18;;;;;;;;;;6162845;23;20023;-42
2023/09/08 09:21:43;;;;;;;8.35;3.90;;;;;;;;;;6164581;23;20021;-43
2023/09/08 09:24:16;;;;;;;9.98;4.53;;;;;;;;;;6170253;23;20432;-41
2023/09/08 09:26:47;;;;;;;9.85;4.40;;;;;;;;;;6149681;23;20027;-43
2023/09/08 09:29:16;;;;;;;11.17;4.40;;;;;;;;;;6174093;23;20230;-42
2023/09/08 09:31:52;;;;;;;7.40;3.72;;;;;;;;;;6158956;23;20021;-43
2023/09/08 09:34:21;;;;;;;9.00;4.20;;;;;;;;;;6163024;23;20432;-43
2023/09/08 09:36:50;;;;;;;9.35;4.95;;;;;;;;;;6162088;23;20023;-46
2023/09/08 09:39:19;;;;;;;10.50;4.53;;;;;;;;;;6161478;23;20016;-43
2023/09/08 09:41:48;;;;;;;9.97;4.80;;;;;;;;;;6167449;23;20012;-43
2023/09/08 09:44:16;;;;;;;8.38;5.10;;;;;;;;;;6168824;23;20031;-42
2023/09/08 09:46:44;;;;;;;10.95;4.20;;;;;;;;;;6168225;23;20027;-45
2023/09/08 09:49:14;;;;;;;12.95;4.43;;;;;;;;;;6155669;23;20414;-45
2023/09/08 09:51:43;;;;;;;8.32;4.20;;;;;;;;;;6158824;23;20070;-44
2023/09/08 09:54:11;;;;;;;14.50;4.57;;;;;;;;;;6159961;23;20090;-46
2023/09/08 09:56:40;;;;;;;15.15;4.90;;;;;;;;;;6161830;23;20013;-44
2023/09/08 09:59:12;;;;;;;8.68;4.75;;;;;;;;;;6137274;23;20021;-44
2023/09/08 10:01:42;;;;;;;7.32;3.40;;;;;;;;;;6160388;23;20687;-43
2023/09/08 10:04:10;;;;;;;10.23;3.55;;;;;;;;;;6164328;23;20052;-44
2023/09/08 10:06:39;;;;;;;7.07;3.40;;;;;;;;;;6168148;23;20078;-44
2023/09/08 10:09:08;;;;;;;8.20;3.75;;;;;;;;;;6166143;23;20016;-46
2023/09/08 10:11:39;;;;;;;8.18;3.70;;;;;;;;;;6166031;23;20023;-45
2023/09/08 10:14:11;;;;;;;5.70;2.33;;;;;;;;;;6174758;23;20017;-43
2023/09/08 10:16:39;;;;;;;6.13;2.80;;;;;;;;;;6100915;23;20036;-44
2023/09/08 10:19:09;;;;;;;10.93;3.57;;;;;;;;;;6161355;23;20020;-42
2023/09/08 10:21:40;;;;;;;7.93;3.50;;;;;;;;;;6156984;23;20062;-45
2023/09/08 10:24:12;;;;;;;5.70;3.05;;;;;;;;;;6181841;23;20075;-46
2023/09/08 10:26:40;;;;;;;6.45;3.30;;;;;;;;;;6178012;23;20024;-43
2023/09/08 10:29:10;;;;;;;5.55;2.83;;;;;;;;;;6182305;23;20432;-43
2023/09/08 10:31:38;;;;;;;6.10;3.00;;;;;;;;;;6178106;23;20013;-47
2023/09/08 10:34:07;;;;;;;6.82;3.00;;;;;;;;;;6187760;23;20104;-44
2023/09/08 10:36:35;;;;;;;6.05;3.20;;;;;;;;;;6171253;23;20024;-43
2023/09/08 10:39:35;;;;;;;7.13;2.83;;;;;;;;;;6187913;23;20351;-44
2023/09/08 10:42:24;;;;;;;6.40;3.20;;;;;;;;;;6062998;23;20151;-44
2023/09/08 10:45:03;;;;;;;7.60;3.70;;;;;;;;;;6164358;23;20927;-48
2023/09/08 10:47:33;;;;;;;5.35;2.30;;;;;;;;;;6180656;23;20016;-43
2023/09/08 10:50:02;;;;;;;6.35;2.40;;;;;;;;;;6187959;23;20024;-44
2023/09/08 10:52:32;;;;;;;6.13;2.53;;;;;;;;;;6181114;23;20013;-47
2023/09/08 10:55:01;;;;;;;5.75;2.45;;;;;;;;;;6183499;23;20024;-44
2023/09/08 10:57:31;;;;;;;6.37;2.60;;;;;;;;;;6175224;23;20087;-44
2023/09/08 11:00:05;;;;;;;5.10;2.70;;;;;;;;;;6171170;23;20017;-46
2023/09/08 11:02:33;;;;;;;8.13;2.72;;;;;;;;;;6158205;23;20115;-45
2023/09/08 11:05:01;;;;;;;4.40;1.67;;;;;;;;;;6167629;23;20028;-43
2023/09/08 11:07:30;;;;;;;4.47;2.22;;;;;;;;;;6169462;23;20043;-44
2023/09/08 11:09:58;;;;;;;6.53;2.70;;;;;;;;;;6167768;23;20021;-47
2023/09/08 11:12:27;;;;;;;6.15;2.50;;;;;;;;;;6170885;23;20023;-44
2023/09/08 11:14:56;;;;;;;4.65;2.10;;;;;;;;;;6165061;23;20067;-43
2023/09/08 11:17:28;;;;;;;5.93;2.60;;;;;;;;;;6164778;23;20016;-44
2023/09/08 11:19:57;;;;;;;5.80;2.70;;;;;;;;;;6174982;23;20027;-43
2023/09/08 11:22:26;;;;;;;6.13;2.23;;;;;;;;;;6172514;23;20127;-43
2023/09/08 11:24:56;;;;;;;5.43;2.13;;;;;;;;;;6166189;23;20020;-43
2023/09/08 11:27:24;;;;;;;8.07;2.83;;;;;;;;;;6179493;23;20652;-46
2023/09/08 11:29:52;;;;;;;6.60;2.42;;;;;;;;;;6161766;23;20376;-43
2023/09/08 11:32:19;;;;;;;6.15;2.80;;;;;;;;;;6169492;23;20016;-43
2023/09/08 11:34:48;;;;;;;4.20;1.80;;;;;;;;;;6163411;23;20019;-42
2023/09/08 11:37:18;;;;;;;4.22;1.73;;;;;;;;;;6174959;23;20751;-43
2023/09/08 11:39:46;;;;;;;6.30;2.47;;;;;;;;;;6160850;23;20029;-43
2023/09/08 11:42:15;;;;;;;5.22;2.05;;;;;;;;;;6170598;23;20021;-43
2023/09/08 11:44:43;;;;;;;7.38;3.10;;;;;;;;;;6163552;23;20104;-42
2023/09/08 11:47:11;;;;;;;5.00;2.33;;;;;;;;;;6173435;23;20016;-46
2023/09/08 11:49:54;;;;;;;5.63;2.67;;;;;;;;;;6169010;23;20021;-42
2023/09/08 11:52:23;;;;;;;7.97;3.13;;;;;;;;;;6159333;23;20016;-43
2023/09/08 11:54:52;;;;;;;6.20;2.95;;;;;;;;;;6173001;23;20017;-44
2023/09/08 11:57:34;;;;;;;4.07;1.70;;;;;;;;;;6170735;23;20113;-45
2023/09/08 12:00:05;;;;;;;5.30;2.17;;;;;;;;;;6168890;23;20016;-43
2023/09/08 12:02:35;;;;;;;7.13;3.33;;;;;;;;;;6162368;23;20020;-46
2023/09/08 12:05:05;;;;;;;6.57;3.08;;;;;;;;;;6168658;23;20020;-43
2023/09/08 12:07:33;;;;;;;5.32;2.65;;;;;;;;;;6167338;23;20455;-43
2023/09/08 12:10:07;;;;;;;5.97;2.17;;;;;;;;;;6162881;23;20016;-43
2023/09/08 12:12:35;;;;;;;5.40;2.50;;;;;;;;;;6158540;23;20020;-48
2023/09/08 12:15:03;;;;;;;7.10;2.47;;;;;;;;;;6164126;23;20016;-47
2023/09/08 12:17:31;;;;;;;4.97;1.40;;;;;;;;;;6164567;23;20020;-43
2023/09/08 12:19:59;;;;;;;5.82;2.50;;;;;;;;;;6171604;23;20016;-45
2023/09/08 12:22:33;;;;;;;5.25;1.73;;;;;;;;;;6174388;23;20475;-45
2023/09/08 12:25:02;;;;;;;4.90;2.20;;;;;;;;;;6154504;23;20699;-43
2023/09/08 12:27:30;;;;;;;8.52;2.90;;;;;;;;;;6168606;23;20020;-46
2023/09/08 12:29:58;;;;;;;4.18;1.73;;;;;;;;;;6163341;23;20015;-43
2023/09/08 12:32:26;;;;;;;6.30;2.50;;;;;;;;;;6169700;23;20035;-44
2023/09/08 12:34:54;;;;;;;4.18;1.67;;;;;;;;;;6153720;23;20021;-44
2023/09/08 12:37:22;;;;;;;5.47;2.13;;;;;;;;;;6175413;23;20055;-45
2023/09/08 12:39:51;;;;;;;4.82;2.45;;;;;;;;;;6159414;23;20020;-44
2023/09/08 12:42:20;;;;;;;3.92;1.60;;;;;;;;;;6152325;23;20030;-44
2023/09/08 12:44:48;;;;;;;4.20;1.70;;;;;;;;;;6162986;23;20021;-43
2023/09/08 12:47:17;;;;;;;5.13;2.20;;;;;;;;;;6163106;23;20024;-41
2023/09/08 12:49:44;;;;;;;4.87;2.50;;;;;;;;;;6170050;23;20017;-42
2023/09/08 12:52:12;;;;;;;5.47;2.72;;;;;;;;;;6172193;23;20101;-42
2023/09/08 12:54:40;;;;;;;4.22;1.95;;;;;;;;;;6165699;23;20352;-43
2023/09/08 12:57:10;;;;;;;4.32;1.63;;;;;;;;;;6172429;23;20020;-46
2023/09/08 12:59:38;;;;;;;4.32;1.80;;;;;;;;;;6157958;23;20027;-42
2023/09/08 13:02:06;;;;;;;5.27;1.87;;;;;;;;;;6164383;23;20083;-42
2023/09/08 13:04:39;;;;;;;11.85;3.97;;;;;;;;;;6169389;23;20032;-44
2023/09/08 13:07:07;;;;;;;6.15;2.13;;;;;;;;;;6170806;23;20021;-45
2023/09/08 13:09:35;;;;;;;4.57;2.00;;;;;;;;;;6162933;23;20099;-42
2023/09/08 13:12:03;;;;;;;4.97;2.30;;;;;;;;;;6157101;23;20107;-44
2023/09/08 13:14:34;;;;;;;8.40;4.40;;;;;;;;;;6172404;23;20027;-43
2023/09/08 13:17:02;;;;;;;5.13;2.42;;;;;;;;;;6168843;23;20578;-42
2023/09/08 13:19:30;;;;;;;4.00;1.38;;;;;;;;;;6159258;23;20017;-45
2023/09/08 13:21:58;;;;;;;9.80;3.28;;;;;;;;;;6141659;23;20024;-43
2023/09/08 13:24:26;;;;;;;7.70;2.67;;;;;;;;;;6163073;23;20794;-43
2023/09/08 13:26:54;;;;;;;3.57;1.53;;;;;;;;;;6161231;23;20027;-44
2023/09/08 13:29:22;;;;;;;7.95;3.22;;;;;;;;;;6170442;23;20051;-41
2023/09/08 13:31:51;;;;;;;4.80;2.40;;;;;;;;;;6162224;23;20013;-42
2023/09/08 13:34:18;;;;;;;5.43;1.83;;;;;;;;;;6165945;23;20502;-41
2023/09/08 13:36:46;;;;;;;5.03;1.75;;;;;;;;;;6165445;23;20036;-41
2023/09/08 13:39:14;;;;;;;6.33;2.63;;;;;;;;;;6166668;23;20032;-43
2023/09/08 13:41:46;;;;;;;3.63;1.48;;;;;;;;;;6169100;23;20028;-43
2023/09/08 13:44:15;;;;;;;8.38;2.28;;;;;;;;;;6170985;23;20052;-43
2023/09/08 13:46:42;;;;;;;8.63;2.95;;;;;;;;;;6152026;23;20024;-42
2023/09/08 13:49:12;;;;;;;4.35;1.85;;;;;;;;;;6171232;23;20024;-43
2023/09/08 13:51:41;;;;;;;8.93;3.03;;;;;;;;;;6158513;23;20421;-41
2023/09/08 13:54:11;;;;;;;8.80;2.58;;;;;;;;;;6126370;23;20505;-42
2023/09/08 13:56:40;;;;;;;4.57;1.83;;;;;;;;;;6166682;23;20037;-41
2023/09/08 13:59:11;;;;;;;4.15;1.63;;;;;;;;;;6155946;23;20842;-41
2023/09/08 14:01:40;;;;;;;6.05;2.08;;;;;;;;;;6165847;23;20016;-42
2023/09/08 14:04:15;;;;;;;8.47;3.30;;;;;;;;;;6110669;23;20068;-44
2023/09/08 14:06:45;;;;;;;8.35;2.15;;;;;;;;;;6170114;23;20095;-44
2023/09/08 14:09:20;;;;;;;3.92;1.50;;;;;;;;;;6172842;23;20021;-41
2023/09/08 14:12:08;;;;;;;4.43;1.58;;;;;;;;;;6157168;23;20107;-44
2023/09/08 14:14:39;;;;;;;9.13;3.30;;;;;;;;;;6174569;23;20025;-41
2023/09/08 14:17:06;;;;;;;4.23;1.90;;;;;;;;;;6162512;23;20017;-43
2023/09/08 14:19:35;;;;;;;5.32;1.92;;;;;;;;;;6162713;23;20024;-41
2023/09/08 14:22:03;;;;;;;7.30;1.90;;;;;;;;;;6146014;23;20399;-42
2023/09/08 14:24:32;;;;;;;4.78;2.08;;;;;;;;;;6168726;23;20013;-42
2023/09/08 14:27:00;;;;;;;8.38;2.30;;;;;;;;;;6168114;23;20020;-42
2023/09/08 14:29:28;;;;;;;5.77;1.77;;;;;;;;;;6162127;23;20025;-42
2023/09/08 14:31:56;;;;;;;7.65;2.50;;;;;;;;;;6167125;23;20012;-41
2023/09/08 14:34:24;;;;;;;5.20;2.60;;;;;;;;;;6160294;23;20780;-45
2023/09/08 14:36:53;;;;;;;11.13;3.20;;;;;;;;;;6165403;23;20471;-43
2023/09/08 14:39:22;;;;;;;10.95;4.43;;;;;;;;;;6166560;23;20136;-42
2023/09/08 14:41:53;;;;;;;8.87;2.80;;;;;;;;;;6162574;23;20104;-45
2023/09/08 14:44:23;;;;;;;9.10;4.03;;;;;;;;;;6165205;23;20017;-42
2023/09/08 14:46:51;;;;;;;4.53;1.27;;;;;;;;;;6154051;23;20740;-41